Vernon, Oklahoma
Current Conditions -  °F | °C
As of 10:53 AM on Friday 19 Dec 2014 (Local Time) from KMLC Reporting Station
Moderate Fog Moderate Fog  
Wind Chill: 37°   Ceiling: 200
Heat Index: 42°   Visibility: 0.5mi
Dew Point: 41°   Wind: 8mph
Humidity: 96%   Direction: 10°N
Pressure: 30.25"   Gusts: NA
Location:  35.2158°N, 95.8817°W
Report Text: KMLC 191653Z AUTO 01007KT 1/2SM FG VV002 06/05 A3025 RMK AO2 SLP244 T00560050
Loading
Personal Weather Stations






























Interactive Weather Map New forecast layout! Learn more

10-Day Weather Forecast

Advertisements
Track Severe Weather on mobile